Time;durP1;ratioP1;P1;durP2;ratioP2;P2;SDS_P1;SDS_P2;PMS_P1;PMS_P2;Temp;Humidity;BMP_temperature;BMP_pressure;BME280_temperature;BME280_humidity;BME280_pressure;Samples;Min_cycle;Max_cycle;Signal;HPM_P1;HPM_P2
2022/06/24 00:02:08;;;;;;;4.50;2.00;;;21.20;72.80;;;;;;6150962;23;20013;-72
2022/06/24 00:04:33;;;;;;;7.47;2.03;;;21.20;73.50;;;;;;6178202;23;20013;-72
2022/06/24 00:06:59;;;;;;;6.97;2.45;;;21.20;73.20;;;;;;6151507;23;20091;-73
2022/06/24 00:09:28;;;;;;;4.75;2.13;;;21.20;72.50;;;;;;6176639;23;20021;-73
2022/06/24 00:12:26;;;;;;;6.03;2.38;;;21.10;72.50;;;;;;6151452;23;20374;-72
2022/06/24 00:15:00;;;;;;;7.30;2.22;;;21.10;73.20;;;;;;6177011;23;20426;-73
2022/06/24 00:17:31;;;;;;;4.72;1.80;;;21.10;73.80;;;;;;6177785;23;20028;-72
2022/06/24 00:20:06;;;;;;;5.38;1.98;;;21.10;74.10;;;;;;6151501;23;20493;-72
2022/06/24 00:22:44;;;;;;;8.85;2.42;;;21.10;74.90;;;;;;6150460;23;20361;-72
2022/06/24 00:25:12;;;;;;;6.05;2.40;;;21.10;74.50;;;;;;6178243;23;20064;-73
2022/06/24 00:27:39;;;;;;;5.80;2.47;;;21.10;73.20;;;;;;6148123;23;20013;-72
2022/06/24 00:30:13;;;;;;;4.45;2.42;;;21.10;72.80;;;;;;6174908;23;20024;-72
2022/06/24 00:32:39;;;;;;;3.35;2.00;;;21.00;74.10;;;;;;6177377;23;20323;-73
2022/06/24 00:35:09;;;;;;;6.63;2.00;;;21.00;74.90;;;;;;6177469;23;20019;-73
2022/06/24 00:37:36;;;;;;;3.42;2.20;;;21.00;74.90;;;;;;6178182;23;20025;-72
2022/06/24 00:40:13;;;;;;;2.97;1.88;;;20.90;74.90;;;;;;6179795;23;20024;-74
2022/06/24 00:42:41;;;;;;;7.57;3.20;;;20.90;75.30;;;;;;6180088;23;20095;-72
2022/06/24 00:45:26;;;;;;;4.68;2.22;;;20.90;76.10;;;;;;6154412;23;20291;-72
2022/06/24 00:47:56;;;;;;;3.40;2.25;;;20.90;76.90;;;;;;6152934;23;20025;-73
2022/06/24 00:50:23;;;;;;;5.03;2.70;;;20.80;77.90;;;;;;6180221;23;20013;-72
2022/06/24 00:52:52;;;;;;;4.78;2.30;;;20.80;78.90;;;;;;6148712;23;20025;-72
2022/06/24 00:55:34;;;;;;;6.38;2.47;;;20.80;79.70;;;;;;6179651;23;20092;-73
2022/06/24 00:58:01;;;;;;;4.28;1.90;;;20.80;79.60;;;;;;6178131;23;20079;-73
2022/06/24 01:00:34;;;;;;;7.07;2.70;;;20.80;79.80;;;;;;6180070;23;20017;-73
2022/06/24 01:03:04;;;;;;;4.43;2.35;;;20.70;79.80;;;;;;6151781;23;20025;-73
2022/06/24 01:05:31;;;;;;;5.35;2.42;;;20.60;80.30;;;;;;6153670;23;20024;-73
2022/06/24 01:07:58;;;;;;;5.60;2.20;;;20.50;81.70;;;;;;6177903;23;20017;-73
2022/06/24 01:10:25;;;;;;;4.50;2.53;;;20.50;82.40;;;;;;6178889;23;20100;-72
2022/06/24 01:12:51;;;;;;;5.22;2.50;;;20.40;82.50;;;;;;6178230;23;20346;-73
2022/06/24 01:15:17;;;;;;;7.10;2.25;;;20.40;82.40;;;;;;6178237;23;20017;-73
2022/06/24 01:17:43;;;;;;;12.07;2.40;;;20.40;82.70;;;;;;6152100;23;20024;-72
2022/06/24 01:20:11;;;;;;;5.63;2.42;;;20.30;83.10;;;;;;6178936;23;20446;-73
2022/06/24 01:22:36;;;;;;;8.45;2.35;;;20.20;84.00;;;;;;6150888;23;20025;-73
2022/06/24 01:25:03;;;;;;;7.60;3.25;;;20.20;84.40;;;;;;6179456;23;22031;-72
2022/06/24 01:27:29;;;;;;;4.05;2.22;;;20.20;85.10;;;;;;6177318;23;20499;-73
2022/06/24 01:29:55;;;;;;;6.60;2.90;;;20.10;85.80;;;;;;6177825;23;20044;-73
2022/06/24 01:32:21;;;;;;;8.40;3.10;;;20.10;87.40;;;;;;6152725;23;20094;-73
2022/06/24 01:34:46;;;;;;;9.02;2.75;;;20.10;88.90;;;;;;6150303;23;20083;-73
2022/06/24 01:37:12;;;;;;;4.78;2.83;;;20.00;89.60;;;;;;6151613;23;20021;-73
2022/06/24 01:39:38;;;;;;;6.72;2.40;;;20.00;90.00;;;;;;6178877;23;20013;-73
2022/06/24 01:42:10;;;;;;;4.50;3.03;;;19.90;90.20;;;;;;6153387;23;20337;-73
2022/06/24 01:44:36;;;;;;;3.72;2.60;;;19.90;90.70;;;;;;6150052;23;20088;-73
2022/06/24 01:47:02;;;;;;;4.90;3.10;;;19.90;91.60;;;;;;6153963;23;20029;-72
2022/06/24 01:49:29;;;;;;;5.05;2.70;;;19.80;91.90;;;;;;6179492;23;20013;-72
2022/06/24 01:51:56;;;;;;;5.20;2.60;;;19.80;92.10;;;;;;6152666;23;20028;-73
2022/06/24 01:54:26;;;;;;;7.97;2.65;;;19.70;92.10;;;;;;6178913;23;20381;-72
2022/06/24 01:56:53;;;;;;;4.82;2.80;;;19.70;92.20;;;;;;6180303;23;20048;-72
2022/06/24 01:59:19;;;;;;;8.25;3.10;;;19.70;92.70;;;;;;6151862;23;20393;-72
2022/06/24 02:01:45;;;;;;;6.03;3.00;;;19.70;93.00;;;;;;6179554;23;20411;-72
2022/06/24 02:04:11;;;;;;;5.88;3.00;;;19.70;93.10;;;;;;6178365;23;20175;-73
2022/06/24 02:06:37;;;;;;;10.38;2.78;;;19.70;93.10;;;;;;6151048;23;20052;-72
2022/06/24 02:09:04;;;;;;;6.00;3.42;;;19.70;93.00;;;;;;6151204;23;20017;-73
2022/06/24 02:14:14;;;;;;;7.13;3.15;;;19.60;92.80;;;;;;6179852;23;20061;-73
2022/06/24 02:16:40;;;;;;;3.38;2.70;;;19.60;92.70;;;;;;6152781;23;20021;-73
2022/06/24 02:19:06;;;;;;;3.50;2.25;;;19.60;92.70;;;;;;6153156;23;20013;-72
2022/06/24 02:21:33;;;;;;;6.93;3.08;;;19.50;92.40;;;;;;6178558;23;20017;-72
2022/06/24 02:23:59;;;;;;;8.18;2.90;;;19.50;92.20;;;;;;6152094;23;20033;-72
2022/06/24 02:26:25;;;;;;;5.47;2.63;;;19.50;92.20;;;;;;6177388;23;20107;-72
2022/06/24 02:28:51;;;;;;;8.43;3.55;;;19.40;92.10;;;;;;6151083;23;20013;-72
2022/06/24 02:31:17;;;;;;;4.65;2.60;;;19.40;92.00;;;;;;6178015;23;20015;-72
2022/06/24 02:33:43;;;;;;;9.27;3.25;;;19.30;92.30;;;;;;6179283;23;20021;-72
2022/06/24 02:36:09;;;;;;;6.78;3.15;;;19.30;92.80;;;;;;6177787;23;20108;-73
2022/06/24 02:38:35;;;;;;;5.60;3.08;;;19.30;93.10;;;;;;6153028;23;20100;-72
2022/06/24 02:41:01;;;;;;;9.48;3.42;;;19.20;93.30;;;;;;6178458;23;20025;-72
2022/06/24 02:43:35;;;;;;;5.40;2.85;;;19.20;93.80;;;;;;6152822;23;20019;-72
2022/06/24 02:46:01;;;;;;;7.97;3.50;;;19.20;94.30;;;;;;6180586;23;20028;-72
2022/06/24 02:48:27;;;;;;;3.20;2.88;;;19.20;94.30;;;;;;6150279;23;20021;-72
2022/06/24 02:50:58;;;;;;;6.85;3.08;;;19.10;94.40;;;;;;6179723;23;20020;-72
2022/06/24 02:53:25;;;;;;;4.72;3.28;;;19.10;94.80;;;;;;6150472;23;20021;-72
2022/06/24 02:55:53;;;;;;;7.57;3.15;;;19.10;95.00;;;;;;6151824;23;20555;-72
2022/06/24 02:58:19;;;;;;;5.05;3.20;;;19.10;95.00;;;;;;6176677;23;20019;-72
2022/06/24 03:00:45;;;;;;;6.00;3.15;;;19.10;94.90;;;;;;6177665;23;20053;-72
2022/06/24 03:03:13;;;;;;;4.53;3.60;;;19.10;94.70;;;;;;6151330;23;20021;-72
2022/06/24 03:05:40;;;;;;;4.88;3.50;;;19.10;94.50;;;;;;6153015;23;20052;-72
2022/06/24 03:08:07;;;;;;;6.82;3.58;;;19.10;94.20;;;;;;6178620;23;20377;-72
2022/06/24 03:10:33;;;;;;;7.10;4.00;;;19.20;93.90;;;;;;6176193;23;20017;-72
2022/06/24 03:12:59;;;;;;;9.30;4.13;;;19.10;93.90;;;;;;6177234;23;20017;-72
2022/06/24 03:15:25;;;;;;;5.25;3.00;;;19.20;93.80;;;;;;6177514;23;20059;-72
2022/06/24 03:17:53;;;;;;;5.13;3.35;;;19.20;93.80;;;;;;6177314;23;20410;-72
2022/06/24 03:20:19;;;;;;;5.65;3.60;;;19.20;93.80;;;;;;6152912;23;20025;-73
2022/06/24 03:22:45;;;;;;;6.38;3.60;;;19.20;93.80;;;;;;6150702;23;20029;-72
2022/06/24 03:25:10;;;;;;;4.40;2.85;;;19.20;93.80;;;;;;6178811;23;20318;-72
2022/06/24 03:27:37;;;;;;;5.18;3.45;;;19.20;93.90;;;;;;6177787;23;20116;-72
2022/06/24 03:30:07;;;;;;;5.57;3.22;;;19.20;94.20;;;;;;6177760;23;20013;-72
2022/06/24 03:32:33;;;;;;;6.75;3.25;;;19.20;94.40;;;;;;6179957;23;20147;-72
2022/06/24 03:35:00;;;;;;;6.28;3.88;;;19.20;94.30;;;;;;6150473;23;20024;-72
2022/06/24 03:37:26;;;;;;;4.82;3.60;;;19.30;94.20;;;;;;6178374;23;20088;-72
2022/06/24 03:39:51;;;;;;;4.75;3.17;;;19.30;94.10;;;;;;6152920;23;20080;-72
2022/06/24 03:42:20;;;;;;;5.35;3.05;;;19.30;94.20;;;;;;6152612;23;20025;-72
2022/06/24 03:44:46;;;;;;;7.60;3.45;;;19.30;94.10;;;;;;6173145;23;20373;-72
2022/06/24 03:47:11;;;;;;;4.30;3.40;;;19.40;94.10;;;;;;6178681;23;20017;-73
2022/06/24 03:49:40;;;;;;;5.35;3.72;;;19.30;93.80;;;;;;6179072;23;20017;-73
2022/06/24 03:52:06;;;;;;;8.18;3.75;;;19.40;93.90;;;;;;6178683;23;20032;-72
2022/06/24 03:54:32;;;;;;;3.55;2.42;;;19.40;94.10;;;;;;6174741;23;20013;-72
2022/06/24 03:56:58;;;;;;;4.72;3.00;;;19.40;94.30;;;;;;6176327;23;20021;-72
2022/06/24 03:59:23;;;;;;;9.10;3.53;;;19.40;94.30;;;;;;6176921;23;20025;-72
2022/06/24 04:01:49;;;;;;;5.72;3.80;;;19.50;94.50;;;;;;6179504;23;20053;-73
2022/06/24 04:04:15;;;;;;;7.63;3.78;;;19.50;94.50;;;;;;6149061;23;20032;-72
2022/06/24 04:06:40;;;;;;;5.65;3.50;;;19.50;94.30;;;;;;6148633;23;20035;-73
2022/06/24 04:09:06;;;;;;;8.10;3.67;;;19.50;94.40;;;;;;6149613;23;20013;-72
2022/06/24 04:11:32;;;;;;;8.45;3.53;;;19.50;94.70;;;;;;6178395;23;20017;-72
2022/06/24 04:14:05;;;;;;;6.55;3.60;;;19.50;94.70;;;;;;6178213;23;20457;-73
2022/06/24 04:16:30;;;;;;;9.75;3.90;;;19.50;94.80;;;;;;6180090;23;20028;-72
2022/06/24 04:18:56;;;;;;;5.00;3.30;;;19.50;94.70;;;;;;6178735;23;20017;-72
2022/06/24 04:21:22;;;;;;;6.20;3.53;;;19.50;94.60;;;;;;6179195;23;20013;-73
2022/06/24 04:23:49;;;;;;;6.25;3.67;;;19.50;94.20;;;;;;6150317;23;20013;-72
2022/06/24 04:26:16;;;;;;;5.68;3.40;;;19.60;94.10;;;;;;6175676;23;20021;-72
2022/06/24 04:28:42;;;;;;;7.90;3.38;;;19.60;94.30;;;;;;6149611;23;20017;-73
2022/06/24 04:31:08;;;;;;;5.85;3.17;;;19.60;94.10;;;;;;6151695;23;20532;-72
2022/06/24 04:33:34;;;;;;;6.53;2.90;;;19.70;94.30;;;;;;6174864;23;20033;-73
2022/06/24 04:35:59;;;;;;;14.25;3.25;;;19.70;94.10;;;;;;6177808;23;20450;-73
2022/06/24 04:38:25;;;;;;;4.80;2.80;;;19.70;94.10;;;;;;6177683;23;20403;-73
2022/06/24 04:40:51;;;;;;;4.13;3.08;;;19.70;94.10;;;;;;6177243;23;20017;-73
2022/06/24 04:43:17;;;;;;;10.15;3.97;;;19.80;94.00;;;;;;6176770;23;20446;-72
2022/06/24 04:45:49;;;;;;;6.03;3.25;;;19.80;94.00;;;;;;6177100;23;20395;-73
2022/06/24 04:48:14;;;;;;;6.93;3.58;;;19.80;94.20;;;;;;6150166;23;20014;-72
2022/06/24 04:50:40;;;;;;;5.57;3.42;;;19.90;94.30;;;;;;6178938;23;20020;-72
2022/06/24 04:53:06;;;;;;;13.68;4.00;;;19.90;94.40;;;;;;6149044;23;20028;-72
2022/06/24 04:55:31;;;;;;;4.65;3.20;;;20.00;94.40;;;;;;6152591;23;20032;-72
2022/06/24 04:57:57;;;;;;;6.60;3.33;;;20.00;94.30;;;;;;6177752;23;20029;-73
2022/06/24 05:00:23;;;;;;;6.57;3.75;;;20.10;93.90;;;;;;6177305;23;20101;-72
2022/06/24 05:02:48;;;;;;;9.30;3.20;;;20.10;93.80;;;;;;6177465;23;20095;-73
2022/06/24 05:05:14;;;;;;;14.23;3.63;;;20.10;93.50;;;;;;6150651;23;20017;-72
2022/06/24 05:07:40;;;;;;;5.47;2.97;;;20.20;93.90;;;;;;6149192;23;20017;-72
2022/06/24 05:10:07;;;;;;;7.15;3.10;;;20.20;93.60;;;;;;6153404;23;20025;-72
2022/06/24 05:12:33;;;;;;;6.57;3.42;;;20.30;93.80;;;;;;6151545;23;20017;-73
2022/06/24 05:14:59;;;;;;;7.13;3.80;;;20.30;93.50;;;;;;6150896;23;20044;-73
2022/06/24 05:17:28;;;;;;;7.72;3.95;;;20.40;93.10;;;;;;6178077;23;20020;-73
2022/06/24 05:19:53;;;;;;;8.10;4.07;;;20.40;93.00;;;;;;6179860;23;20085;-73
2022/06/24 05:22:20;;;;;;;6.00;3.90;;;20.40;92.90;;;;;;6177089;23;20406;-72
2022/06/24 05:24:45;;;;;;;8.40;3.60;;;20.40;92.70;;;;;;6178733;23;20023;-72
2022/06/24 05:27:11;;;;;;;9.75;3.80;;;20.50;92.50;;;;;;6180563;23;20021;-73
2022/06/24 05:29:39;;;;;;;7.25;3.33;;;20.50;92.40;;;;;;6177405;23;20084;-73
2022/06/24 05:32:05;;;;;;;7.80;3.50;;;20.50;92.60;;;;;;6179285;23;20458;-73
2022/06/24 05:34:31;;;;;;;7.03;3.28;;;20.50;92.70;;;;;;6179443;23;20017;-71
2022/06/24 05:36:56;;;;;;;6.90;3.40;;;20.50;92.80;;;;;;6152139;23;20061;-75
2022/06/24 05:39:22;;;;;;;8.25;3.75;;;20.60;92.90;;;;;;6151914;23;20021;-72
2022/06/24 05:41:48;;;;;;;8.40;3.70;;;20.70;92.70;;;;;;6154565;23;20024;-72
2022/06/24 05:44:13;;;;;;;8.30;3.75;;;20.70;92.80;;;;;;6179353;23;20009;-71
2022/06/24 05:46:40;;;;;;;6.88;3.53;;;20.70;92.60;;;;;;6180329;23;20043;-73
2022/06/24 05:49:06;;;;;;;8.25;3.50;;;20.70;92.60;;;;;;6179771;23;20025;-72
2022/06/24 05:51:34;;;;;;;9.90;3.55;;;20.80;92.70;;;;;;6153580;23;20031;-73
2022/06/24 05:56:45;;;;;;;8.13;3.50;;;20.90;92.40;;;;;;6153023;23;20025;-72
2022/06/24 05:59:11;;;;;;;12.13;4.85;;;21.00;92.90;;;;;;6151901;23;20040;-72
2022/06/24 06:01:37;;;;;;;12.43;4.95;;;21.00;92.80;;;;;;6149128;23;20345;-72
2022/06/24 06:04:03;;;;;;;11.77;5.88;;;21.10;92.90;;;;;;6176918;23;20028;-73
2022/06/24 06:06:29;;;;;;;18.13;8.02;;;21.10;93.50;;;;;;6178762;23;20021;-73
2022/06/24 06:08:54;;;;;;;13.18;7.05;;;21.10;94.30;;;;;;6179097;23;20024;-72
2022/06/24 06:11:22;;;;;;;13.30;6.95;;;21.10;94.80;;;;;;6151907;23;20033;-72
2022/06/24 06:13:51;;;;;;;15.60;6.85;;;21.10;95.60;;;;;;6177674;23;20024;-72
2022/06/24 06:16:20;;;;;;;11.45;7.57;;;21.10;96.60;;;;;;6152535;23;20350;-72
2022/06/24 06:18:45;;;;;;;13.02;7.07;;;21.10;97.60;;;;;;6177876;23;20044;-73
2022/06/24 06:21:12;;;;;;;13.00;6.95;;;21.10;98.70;;;;;;6179133;23;20450;-73
2022/06/24 06:23:40;;;;;;;12.48;5.85;;;21.00;99.90;;;;;;6150441;23;20060;-72
2022/06/24 06:26:07;;;;;;;19.65;6.75;;;21.00;99.90;;;;;;6152760;23;20107;-74
2022/06/24 06:28:33;;;;;;;19.63;8.05;;;21.00;99.90;;;;;;6151457;23;20019;-74
2022/06/24 06:30:59;;;;;;;23.15;8.88;;;20.90;99.90;;;;;;6179978;23;20013;-74
2022/06/24 06:33:25;;;;;;;22.70;9.27;;;20.90;99.90;;;;;;6150239;23;20079;-75
2022/06/24 06:35:51;;;;;;;17.02;7.78;;;20.80;99.90;;;;;;6177986;23;20016;-76
2022/06/24 06:38:17;;;;;;;17.15;7.57;;;20.80;99.90;;;;;;6175533;23;20017;-74
2022/06/24 06:40:43;;;;;;;14.32;5.57;;;20.80;99.90;;;;;;6179174;23;20100;-75
2022/06/24 06:43:09;;;;;;;15.43;6.13;;;20.80;99.90;;;;;;6149694;23;20053;-74
2022/06/24 06:45:38;;;;;;;14.93;5.95;;;20.80;99.90;;;;;;6175888;23;20135;-74
2022/06/24 06:48:10;;;;;;;11.20;5.97;;;20.80;99.90;;;;;;6177559;23;20048;-74
2022/06/24 06:50:35;;;;;;;12.38;6.22;;;20.80;99.90;;;;;;6177697;23;20035;-74
2022/06/24 06:53:02;;;;;;;13.57;8.50;;;20.70;99.90;;;;;;6174975;23;20013;-74
2022/06/24 06:55:27;;;;;;;17.05;8.68;;;20.80;99.90;;;;;;6175965;23;20089;-75
2022/06/24 06:57:53;;;;;;;12.60;8.90;;;20.70;99.90;;;;;;6146669;23;20824;-74
2022/06/24 07:00:19;;;;;;;19.63;10.65;;;20.70;99.90;;;;;;6146797;23;20076;-74
2022/06/24 07:02:45;;;;;;;18.48;10.15;;;20.70;99.90;;;;;;6175052;23;20025;-74
2022/06/24 07:05:10;;;;;;;16.35;10.77;;;20.70;99.90;;;;;;6177264;23;20024;-74
2022/06/24 07:07:36;;;;;;;15.02;9.63;;;20.70;99.90;;;;;;6177567;23;20086;-74
2022/06/24 07:10:02;;;;;;;15.43;10.10;;;20.80;99.90;;;;;;6177316;23;20015;-74
2022/06/24 07:12:27;;;;;;;21.33;12.52;;;20.70;99.90;;;;;;6179846;23;20028;-74
2022/06/24 07:14:53;;;;;;;19.08;10.82;;;20.70;99.90;;;;;;6178005;23;20025;-74
2022/06/24 07:17:19;;;;;;;17.13;9.80;;;20.80;99.90;;;;;;6176900;23;20017;-74
2022/06/24 07:19:46;;;;;;;17.88;9.15;;;20.80;99.90;;;;;;6179818;23;20060;-74
2022/06/24 07:22:15;;;;;;;16.45;9.60;;;20.70;99.90;;;;;;6179646;23;20009;-74
2022/06/24 07:24:40;;;;;;;16.20;9.93;;;20.70;99.90;;;;;;6179012;23;20072;-75
2022/06/24 07:27:09;;;;;;;12.82;7.97;;;20.60;99.90;;;;;;6152768;23;20017;-76
2022/06/24 07:29:41;;;;;;;15.02;8.75;;;20.60;99.90;;;;;;6177541;23;20017;-74
2022/06/24 07:32:07;;;;;;;14.15;7.70;;;20.60;99.90;;;;;;6152196;23;20092;-74
2022/06/24 07:34:34;;;;;;;17.17;7.70;;;20.60;99.90;;;;;;6178921;23;20454;-73
2022/06/24 07:37:00;;;;;;;14.38;7.20;;;20.70;99.90;;;;;;6179954;23;20504;-73
2022/06/24 07:39:26;;;;;;;17.65;8.18;;;20.70;99.90;;;;;;6151368;23;20017;-73
2022/06/24 07:41:55;;;;;;;14.25;7.85;;;20.70;99.90;;;;;;6177603;23;20524;-74
2022/06/24 07:44:22;;;;;;;14.93;7.45;;;20.70;99.90;;;;;;6152229;23;20036;-74
2022/06/24 07:46:49;;;;;;;18.08;8.25;;;20.70;99.90;;;;;;6178443;23;20020;-74
2022/06/24 07:49:15;;;;;;;17.90;6.78;;;20.70;99.90;;;;;;6178816;23;20320;-74
2022/06/24 07:51:41;;;;;;;14.43;7.40;;;20.70;99.90;;;;;;6152186;23;20129;-74
2022/06/24 07:54:10;;;;;;;17.77;7.07;;;20.70;99.90;;;;;;6152055;23;20024;-74
2022/06/24 07:59:21;;;;;;;15.52;7.38;;;20.70;99.90;;;;;;6152095;23;20025;-74
2022/06/24 08:01:47;;;;;;;12.48;6.55;;;20.70;99.90;;;;;;6152528;23;20100;-74
2022/06/24 08:04:12;;;;;;;11.15;6.85;;;20.80;99.90;;;;;;6177724;23;20405;-74
2022/06/24 08:06:46;;;;;;;10.88;5.78;;;20.80;99.90;;;;;;6179228;23;20021;-76
2022/06/24 08:09:26;;;;;;;11.63;6.28;;;20.80;99.90;;;;;;6152207;23;20044;-76
2022/06/24 08:11:53;;;;;;;11.52;6.15;;;20.80;99.90;;;;;;6152091;23;20443;-74
2022/06/24 08:14:19;;;;;;;12.02;5.30;;;20.90;99.90;;;;;;6152119;23;20120;-74
2022/06/24 08:16:45;;;;;;;10.52;5.43;;;20.90;99.90;;;;;;6178693;23;20021;-74
2022/06/24 08:19:11;;;;;;;14.63;5.82;;;20.90;99.90;;;;;;6152273;23;20059;-74
2022/06/24 08:21:37;;;;;;;13.85;5.38;;;20.90;99.90;;;;;;6148382;23;20063;-74
2022/06/24 08:24:04;;;;;;;9.10;5.10;;;20.90;99.90;;;;;;6173592;23;20075;-75
2022/06/24 08:26:30;;;;;;;7.35;4.47;;;21.00;99.90;;;;;;6175022;23;20021;-74
2022/06/24 08:28:56;;;;;;;9.20;4.72;;;21.00;99.90;;;;;;6169895;23;20113;-74
2022/06/24 08:31:22;;;;;;;9.82;4.65;;;21.00;99.90;;;;;;6171173;23;20075;-74
2022/06/24 08:33:48;;;;;;;13.57;5.13;;;21.10;99.90;;;;;;6146971;23;20017;-74
2022/06/24 08:36:14;;;;;;;10.32;3.63;;;21.10;99.90;;;;;;6147518;23;20021;-75
2022/06/24 08:38:40;;;;;;;7.57;3.72;;;21.10;99.90;;;;;;6144446;23;20013;-74
2022/06/24 08:41:06;;;;;;;7.22;3.75;;;21.10;99.90;;;;;;6174629;23;20132;-75
2022/06/24 08:43:33;;;;;;;7.05;3.33;;;21.20;99.90;;;;;;6174921;23;20040;-75
2022/06/24 08:46:00;;;;;;;5.93;3.50;;;21.10;99.90;;;;;;6145700;23;20035;-75
2022/06/24 08:48:28;;;;;;;7.07;3.10;;;21.10;99.90;;;;;;6174028;23;20028;-75
2022/06/24 08:50:54;;;;;;;7.15;3.30;;;21.10;99.90;;;;;;6176362;23;20096;-76
2022/06/24 08:53:22;;;;;;;6.50;3.30;;;21.20;99.90;;;;;;6172841;23;20451;-76
2022/06/24 08:55:50;;;;;;;9.57;3.67;;;21.20;99.90;;;;;;6175678;23;20017;-76
2022/06/24 08:58:19;;;;;;;11.68;4.03;;;21.20;99.90;;;;;;6177762;23;20021;-76
2022/06/24 09:00:45;;;;;;;10.00;4.20;;;21.30;99.90;;;;;;6152582;23;20060;-76
2022/06/24 09:03:11;;;;;;;16.48;5.00;;;21.30;99.90;;;;;;6179917;23;20013;-76
2022/06/24 09:05:37;;;;;;;9.13;4.20;;;21.30;99.90;;;;;;6153721;23;20349;-76
2022/06/24 09:08:11;;;;;;;13.32;4.22;;;21.40;99.90;;;;;;6152629;23;20024;-76
2022/06/24 09:10:39;;;;;;;10.18;4.28;;;21.40;99.90;;;;;;6156128;23;20025;-76
2022/06/24 09:13:06;;;;;;;9.43;3.92;;;21.40;99.90;;;;;;6152938;23;20479;-76
2022/06/24 09:15:32;;;;;;;8.77;3.75;;;21.40;99.90;;;;;;6154670;23;20445;-76
2022/06/24 09:17:59;;;;;;;9.45;3.97;;;21.40;99.90;;;;;;6180991;23;20084;-76
2022/06/24 09:20:30;;;;;;;10.88;4.47;;;21.40;99.90;;;;;;6154260;23;20024;-76
2022/06/24 09:23:09;;;;;;;;;;;21.30;99.90;;;;;;6180969;23;20016;-76
2022/06/24 09:26:01;;;;;;;11.98;3.45;;;21.30;99.90;;;;;;6181662;23;20357;-77
2022/06/24 09:28:31;;;;;;;12.63;4.03;;;21.30;99.90;;;;;;6172029;23;20036;-76
2022/06/24 09:31:04;;;;;;;5.50;3.67;;;21.20;99.90;;;;;;6179653;23;20060;-76
2022/06/24 09:33:36;;;;;;;8.48;3.20;;;21.20;99.90;;;;;;6180479;23;20245;-76
2022/06/24 09:36:07;;;;;;;6.72;3.55;;;21.20;99.90;;;;;;6153773;23;20044;-76
2022/06/24 09:38:50;;;;;;;9.10;4.50;;;21.20;99.90;;;;;;6153286;23;20021;-76
2022/06/24 09:41:16;;;;;;;6.47;3.65;;;21.20;99.90;;;;;;6153754;23;20253;-76
2022/06/24 09:43:45;;;;;;;10.38;4.13;;;21.20;99.90;;;;;;6180406;23;20017;-76
2022/06/24 09:46:18;;;;;;;7.38;3.75;;;21.20;99.90;;;;;;6181227;23;20047;-76
2022/06/24 09:48:47;;;;;;;8.35;3.65;;;21.20;99.90;;;;;;6153540;23;20017;-76
2022/06/24 09:51:15;;;;;;;9.18;3.47;;;21.10;99.90;;;;;;6181720;23;20088;-75
2022/06/24 09:53:41;;;;;;;8.70;3.95;;;21.10;99.90;;;;;;6153806;23;20072;-75
2022/06/24 09:56:08;;;;;;;6.53;3.85;;;21.10;99.90;;;;;;6179705;23;20040;-74
2022/06/24 09:58:35;;;;;;;16.27;4.68;;;21.10;99.90;;;;;;6153023;23;20490;-77
2022/06/24 10:01:05;;;;;;;19.23;6.78;;;21.10;99.90;;;;;;6180429;23;20600;-79
2022/06/24 10:03:34;;;;;;;15.47;6.57;;;21.00;99.90;;;;;;6152598;23;20111;-78
2022/06/24 10:06:13;;;;;;;8.93;5.38;;;20.90;99.90;;;;;;6149575;23;20307;-80
2022/06/24 10:08:41;;;;;;;10.68;4.88;;;20.80;99.90;;;;;;6175356;23;20040;-79
2022/06/24 10:11:13;;;;;;;7.28;4.65;;;20.70;99.90;;;;;;6148721;23;20096;-79
2022/06/24 10:13:39;;;;;;;14.68;6.07;;;20.70;99.90;;;;;;6177989;23;20088;-79
2022/06/24 10:16:09;;;;;;;12.38;4.55;;;20.60;99.90;;;;;;6153716;23;20045;-79
2022/06/24 10:18:40;;;;;;;8.18;5.00;;;20.60;99.90;;;;;;6149361;23;20151;-79
2022/06/24 10:21:09;;;;;;;13.15;5.43;;;20.60;99.90;;;;;;6180107;23;20127;-78
2022/06/24 10:23:47;;;;;;;12.43;5.28;;;20.60;99.90;;;;;;6152215;23;20831;-77
2022/06/24 10:26:18;;;;;;;11.02;6.05;;;20.50;99.90;;;;;;6178226;23;20021;-76
2022/06/24 10:29:04;;;;;;;11.88;6.55;;;20.50;99.90;;;;;;6150740;23;20017;-76
2022/06/24 10:31:42;;;;;;;14.45;6.00;;;20.50;99.90;;;;;;6131994;23;20021;-76
2022/06/24 10:34:30;;;;;;;8.98;5.22;;;20.40;99.90;;;;;;6178149;23;20030;-75
2022/06/24 10:37:03;;;;;;;9.13;5.05;;;20.30;99.90;;;;;;6152761;23;20049;-76
2022/06/24 10:39:47;;;;;;;11.32;5.80;;;20.30;99.90;;;;;;6178830;23;20322;-76
2022/06/24 10:42:14;;;;;;;22.50;5.32;;;20.20;99.90;;;;;;6152272;23;20097;-76
2022/06/24 10:44:55;;;;;;;15.32;6.72;;;20.20;99.90;;;;;;6150582;23;20164;-76
2022/06/24 10:47:41;;;;;;;13.27;5.95;;;20.10;99.90;;;;;;6150266;23;20116;-75
2022/06/24 10:50:14;;;;;;;13.95;6.40;;;20.00;99.90;;;;;;6152803;23;20009;-75
2022/06/24 10:52:41;;;;;;;14.43;7.00;;;20.00;99.90;;;;;;6151838;23;20056;-75
2022/06/24 10:55:16;;;;;;;12.68;6.40;;;20.00;99.90;;;;;;6152725;23;20442;-76
2022/06/24 10:57:42;;;;;;;19.08;7.35;;;19.90;99.90;;;;;;6150466;23;20341;-76
2022/06/24 11:00:16;;;;;;;23.25;8.02;;;19.90;99.90;;;;;;6152151;23;20025;-77
2022/06/24 11:02:44;;;;;;;12.13;6.13;;;19.90;99.90;;;;;;6153325;23;20107;-75
2022/06/24 11:05:15;;;;;;;9.30;5.38;;;19.80;99.90;;;;;;6149381;23;20021;-76
2022/06/24 11:07:49;;;;;;;10.85;6.18;;;19.80;99.90;;;;;;6146724;23;20795;-76
2022/06/24 11:10:31;;;;;;;10.35;6.63;;;19.70;99.90;;;;;;6175576;23;20422;-76
2022/06/24 11:12:59;;;;;;;12.93;7.07;;;19.60;99.90;;;;;;6147595;23;20669;-76
2022/06/24 11:15:48;;;;;;;13.95;8.80;;;19.50;99.90;;;;;;6148862;23;20391;-76
2022/06/24 11:18:19;;;;;;;12.60;6.07;;;19.50;99.90;;;;;;6148773;23;20024;-76
2022/06/24 11:20:51;;;;;;;20.60;6.15;;;19.40;99.90;;;;;;6149039;23;20033;-77
2022/06/24 11:23:25;;;;;;;11.43;4.88;;;19.40;99.90;;;;;;6176884;23;20132;-76
2022/06/24 11:26:04;;;;;;;7.97;3.58;;;19.30;99.90;;;;;;6177055;23;20836;-76
2022/06/24 11:28:35;;;;;;;6.40;3.53;;;19.30;99.90;;;;;;6151861;23;20025;-76
2022/06/24 11:31:20;;;;;;;;;;;19.20;99.90;;;;;;6152512;23;20044;-77
2022/06/24 11:33:48;;;;;;;5.07;3.28;;;19.10;99.90;;;;;;6179206;23;19916;-77
2022/06/24 11:36:14;;;;;;;12.85;4.30;;;19.00;99.90;;;;;;6180302;23;20013;-77
2022/06/24 11:39:09;;;;;;;8.00;3.90;;;19.00;99.90;;;;;;6152199;23;20035;-76
2022/06/24 11:41:37;;;;;;;7.43;3.97;;;18.90;99.90;;;;;;6152228;23;20021;-77
2022/06/24 11:44:03;;;;;;;12.25;4.60;;;18.90;99.90;;;;;;6179327;23;20092;-76
2022/06/24 11:46:29;;;;;;;10.80;3.92;;;18.90;99.90;;;;;;6152022;23;20055;-77
2022/06/24 11:49:12;;;;;;;9.30;4.32;;;18.90;99.90;;;;;;6152393;23;20475;-76
2022/06/24 11:51:44;;;;;;;7.82;4.10;;;18.90;99.90;;;;;;6179866;23;20025;-76
2022/06/24 11:54:11;;;;;;;9.80;4.38;;;18.80;99.90;;;;;;6178332;23;20017;-77
2022/06/24 11:56:42;;;;;;;6.47;4.18;;;18.80;99.90;;;;;;6151557;23;20410;-77
2022/06/24 11:59:14;;;;;;;11.30;4.57;;;18.80;99.90;;;;;;6178482;23;20610;-77
2022/06/24 12:01:40;;;;;;;8.63;3.88;;;18.80;99.90;;;;;;6178760;23;20284;-77
2022/06/24 12:04:08;;;;;;;8.85;4.57;;;18.80;99.90;;;;;;6151618;23;20024;-77
2022/06/24 12:06:36;;;;;;;4.57;3.28;;;18.70;99.90;;;;;;6152380;23;20025;-80
2022/06/24 12:09:03;;;;;;;11.02;3.67;;;18.70;99.90;;;;;;6151416;23;20099;-77
2022/06/24 12:11:29;;;;;;;9.52;3.33;;;18.70;99.90;;;;;;6151979;23;20021;-76
2022/06/24 12:14:00;;;;;;;5.55;3.67;;;18.80;99.90;;;;;;6178993;23;20063;-76
2022/06/24 12:16:29;;;;;;;;;;;18.80;99.90;;;;;;6179261;23;20129;-76
2022/06/24 12:18:55;;;;;;;4.50;3.25;;;18.70;99.90;;;;;;6179770;23;19960;-77
2022/06/24 12:21:30;;;;;;;5.50;3.25;;;18.70;99.90;;;;;;6152755;23;20303;-77
2022/06/24 12:23:55;;;;;;;5.07;3.30;;;18.70;99.90;;;;;;6178308;23;20088;-76
2022/06/24 12:26:23;;;;;;;7.50;3.38;;;18.80;99.90;;;;;;6153262;23;20033;-77
2022/06/24 12:29:04;;;;;;;8.13;3.58;;;18.80;99.90;;;;;;6178923;23;20287;-76
2022/06/24 12:31:31;;;;;;;7.05;3.78;;;18.70;99.90;;;;;;6178336;23;20101;-76
2022/06/24 12:33:58;;;;;;;4.03;3.13;;;18.70;99.90;;;;;;6154174;23;20413;-76
2022/06/24 12:36:34;;;;;;;9.98;4.00;;;18.80;99.90;;;;;;6179885;23;20020;-77
2022/06/24 12:39:07;;;;;;;6.32;3.20;;;18.70;99.90;;;;;;6153023;23;20017;-77
2022/06/24 12:41:49;;;;;;;5.43;3.25;;;18.80;99.90;;;;;;6182196;23;20017;-77
2022/06/24 12:44:16;;;;;;;14.38;3.80;;;18.80;99.90;;;;;;6179344;23;20072;-77
2022/06/24 12:53:00;;;;;;;5.88;3.75;;;19.00;99.90;;;;;;6179966;23;20024;-77
2022/06/24 12:55:28;;;;;;;7.45;3.17;;;19.00;99.90;;;;;;6116847;23;20396;-78
2022/06/24 12:57:54;;;;;;;11.23;3.78;;;19.10;99.90;;;;;;6180252;23;20326;-78
2022/06/24 13:00:20;;;;;;;6.90;3.40;;;19.20;99.90;;;;;;6180355;23;20024;-78
2022/06/24 13:02:48;;;;;;;5.30;3.75;;;19.30;99.90;;;;;;6181154;23;20084;-78
2022/06/24 13:05:15;;;;;;;7.00;3.80;;;19.30;99.90;;;;;;6152258;23;20021;-79